createdAt,value
2022-10-04T00:00:42.954Z,7.74
2022-10-04T00:03:48.110Z,7.73
2022-10-04T00:06:54.902Z,7.76
2022-10-04T00:10:00.801Z,7.73
2022-10-04T00:13:05.755Z,7.77
2022-10-04T00:16:15.920Z,7.63
2022-10-04T00:19:37.741Z,7.42
2022-10-04T00:23:18.969Z,7.39
2022-10-04T00:27:10.945Z,7.48
2022-10-04T00:30:23.764Z,7.47
2022-10-04T00:33:37.653Z,7.45
2022-10-04T00:36:50.985Z,7.47
2022-10-04T00:40:06.982Z,7.42
2022-10-04T00:43:15.375Z,7.31
2022-10-04T00:46:24.099Z,7.31
2022-10-04T00:49:31.075Z,7.34
2022-10-04T00:52:36.325Z,7.31
2022-10-04T00:55:41.451Z,7.16
2022-10-04T00:59:02.190Z,7.18
2022-10-04T01:02:08.184Z,7.24
2022-10-04T01:05:16.252Z,7.17
2022-10-04T01:08:25.472Z,7.11
2022-10-04T01:11:29.873Z,7.17
2022-10-04T01:14:40.950Z,7.24
2022-10-04T01:18:09.325Z,7.21
2022-10-04T01:21:27.300Z,7.09
2022-10-04T01:24:35.232Z,7.08
2022-10-04T01:27:42.956Z,7.13
2022-10-04T01:30:45.851Z,7.28
2022-10-04T01:33:48.718Z,7.22
2022-10-04T01:36:54.347Z,7.14
2022-10-04T01:39:58.689Z,7.15
2022-10-04T01:43:04.462Z,7.13
2022-10-04T01:46:10.287Z,7.10
2022-10-04T01:49:17.501Z,6.94
2022-10-04T01:52:24.412Z,7.03
2022-10-04T01:55:30.950Z,6.94
2022-10-04T01:58:36.749Z,6.97
2022-10-04T02:01:42.120Z,6.98
2022-10-04T02:04:48.225Z,6.85
2022-10-04T02:07:51.400Z,6.88
2022-10-04T02:10:56.597Z,6.94
2022-10-04T02:14:00.451Z,6.96
2022-10-04T02:17:05.530Z,6.93
2022-10-04T02:20:12.674Z,6.78
2022-10-04T02:23:17.669Z,6.80
2022-10-04T02:26:22.053Z,6.88
2022-10-04T02:29:24.757Z,6.85
2022-10-04T02:32:45.228Z,6.87
2022-10-04T02:35:48.696Z,6.86
2022-10-04T02:38:55.510Z,6.80
2022-10-04T02:42:03.658Z,6.78
2022-10-04T02:45:13.355Z,6.77
2022-10-04T02:48:28.021Z,6.68
2022-10-04T02:51:34.701Z,6.72
2022-10-04T02:54:41.825Z,6.76
2022-10-04T02:57:46.168Z,6.79
2022-10-04T03:00:51.175Z,6.66
2022-10-04T03:03:56.045Z,6.53
2022-10-04T03:06:59.341Z,6.53
2022-10-04T03:10:02.495Z,6.68
2022-10-04T03:13:06.438Z,6.69
2022-10-04T03:16:09.439Z,6.70
2022-10-04T03:19:12.970Z,6.71
2022-10-04T03:22:15.925Z,6.69
2022-10-04T03:25:23.407Z,6.71
2022-10-04T03:28:28.556Z,6.70
2022-10-04T03:31:32.046Z,6.68
2022-10-04T03:34:36.645Z,6.67
2022-10-04T03:37:39.501Z,6.65
2022-10-04T03:40:46.163Z,6.65
2022-10-04T03:43:51.422Z,6.69
2022-10-04T03:46:54.094Z,6.60
2022-10-04T03:49:57.709Z,6.71
2022-10-04T03:53:03.466Z,6.67
2022-10-04T03:56:13.162Z,6.68
2022-10-04T03:59:21.433Z,6.65
2022-10-04T04:02:31.930Z,6.69
2022-10-04T04:05:38.695Z,6.64
2022-10-04T04:08:44.560Z,6.67
2022-10-04T04:11:49.470Z,6.62
2022-10-04T04:14:53.950Z,6.64
2022-10-04T04:17:56.921Z,6.63
2022-10-04T04:21:01.952Z,6.56
2022-10-04T04:24:10.282Z,6.44
2022-10-04T04:27:14.398Z,6.52
2022-10-04T04:30:19.314Z,6.57
2022-10-04T04:33:27.058Z,6.54
2022-10-04T04:36:31.505Z,6.52
2022-10-04T04:39:41.031Z,6.54
2022-10-04T04:42:45.582Z,6.52
2022-10-04T04:46:08.646Z,6.46
2022-10-04T04:49:15.210Z,6.47
2022-10-04T04:52:19.209Z,6.48
2022-10-04T04:55:24.415Z,6.51
2022-10-04T04:58:29.610Z,6.44
2022-10-04T05:01:36.291Z,6.35
2022-10-04T05:04:38.974Z,6.26
2022-10-04T05:07:42.185Z,6.16
2022-10-04T05:10:47.942Z,6.23
2022-10-04T05:13:53.724Z,6.22
2022-10-04T05:16:58.729Z,6.39
2022-10-04T05:20:02.803Z,6.35
2022-10-04T05:23:05.603Z,6.47
2022-10-04T05:26:12.135Z,6.44
2022-10-04T05:29:18.292Z,6.49
2022-10-04T05:32:29.898Z,6.63
2022-10-04T05:35:44.360Z,6.67
2022-10-04T05:38:51.877Z,6.75
2022-10-04T05:42:07.755Z,6.87
2022-10-04T05:45:16.385Z,6.99
2022-10-04T05:48:20.797Z,7.07
2022-10-04T05:51:25.841Z,7.15
2022-10-04T05:54:31.026Z,7.25
2022-10-04T05:57:39.821Z,7.38
2022-10-04T06:00:51.347Z,7.43
2022-10-04T06:04:09.526Z,7.46
2022-10-04T06:07:19.403Z,7.55
2022-10-04T06:10:45.351Z,7.65
2022-10-04T06:14:11.562Z,7.75
2022-10-04T06:17:41.300Z,7.87
2022-10-04T06:20:56.055Z,8.03
2022-10-04T06:24:02.105Z,8.07
2022-10-04T06:27:15.661Z,8.01
2022-10-04T06:30:20.696Z,8.06
2022-10-04T06:33:34.307Z,8.25
2022-10-04T06:36:52.727Z,8.40
2022-10-04T06:40:06.957Z,8.62
2022-10-04T06:43:24.009Z,8.77
2022-10-04T06:46:31.934Z,8.96
2022-10-04T06:49:43.385Z,9.08
2022-10-04T06:52:58.529Z,9.36
2022-10-04T06:56:11.319Z,9.54
2022-10-04T06:59:37.261Z,9.73
2022-10-04T07:02:43.268Z,9.90
2022-10-04T07:05:49.744Z,9.90
2022-10-04T07:08:56.165Z,9.97
2022-10-04T07:12:02.816Z,10.17
2022-10-04T07:15:11.117Z,10.31
2022-10-04T07:18:16.986Z,10.47
2022-10-04T07:21:20.132Z,10.61
2022-10-04T07:24:27.836Z,10.58
2022-10-04T07:27:34.340Z,10.43
2022-10-04T07:30:40.194Z,10.67
2022-10-04T07:33:45.830Z,10.87
2022-10-04T07:36:51.660Z,10.93
2022-10-04T07:40:00.442Z,10.81
2022-10-04T07:43:06.767Z,10.89
2022-10-04T07:46:20.557Z,11.12
2022-10-04T07:49:23.985Z,11.26
2022-10-04T07:52:49.627Z,11.46
2022-10-04T07:55:57.883Z,11.57
2022-10-04T07:59:09.556Z,12.15
2022-10-04T08:02:22.399Z,12.44
2022-10-04T08:05:30.371Z,12.83
2022-10-04T08:08:45.493Z,13.10
2022-10-04T08:11:54.574Z,13.13
2022-10-04T08:15:08.974Z,13.41
2022-10-04T08:18:30.432Z,13.41
2022-10-04T08:21:38.963Z,13.21
2022-10-04T08:24:53.737Z,13.23
2022-10-04T08:28:21.423Z,13.15
2022-10-04T08:31:32.984Z,13.18
2022-10-04T08:34:47.732Z,13.32
2022-10-04T08:38:04.207Z,13.41
2022-10-04T08:41:28.001Z,13.61
2022-10-04T08:45:00.716Z,13.66
2022-10-04T08:48:24.994Z,13.73
2022-10-04T08:52:06.409Z,13.75
2022-10-04T08:55:35.243Z,13.65
2022-10-04T08:59:16.989Z,13.57
2022-10-04T09:02:56.208Z,13.43
2022-10-04T09:06:13.854Z,13.57
2022-10-04T09:09:49.052Z,13.53
2022-10-04T09:13:04.699Z,13.63
2022-10-04T09:16:17.178Z,14.03
2022-10-04T09:19:21.822Z,14.15
2022-10-04T09:22:46.767Z,14.49
2022-10-04T09:25:53.812Z,14.87
2022-10-04T09:29:28.332Z,15.27
2022-10-04T09:33:00.474Z,15.80
2022-10-04T09:36:13.931Z,16.18
2022-10-04T09:39:42.598Z,16.32
2022-10-04T09:43:09.855Z,16.58
2022-10-04T09:46:29.408Z,17.01
2022-10-04T09:49:50.595Z,17.16
2022-10-04T09:53:00.263Z,17.34
2022-10-04T09:56:21.277Z,17.13
2022-10-04T09:59:50.576Z,17.11
2022-10-04T10:03:36.381Z,17.60
2022-10-04T10:07:01.807Z,17.54
2022-10-04T10:10:32.386Z,17.27
2022-10-04T10:14:18.299Z,17.13
2022-10-04T10:17:26.963Z,17.28
2022-10-04T10:20:42.241Z,17.20
2022-10-04T10:23:55.544Z,17.22
2022-10-04T10:27:10.724Z,16.88
2022-10-04T10:30:21.698Z,16.88
2022-10-04T10:33:38.111Z,17.09
2022-10-04T10:36:54.001Z,17.37
2022-10-04T10:40:08.293Z,17.69
2022-10-04T10:43:21.180Z,17.74
2022-10-04T10:46:38.963Z,17.55
2022-10-04T10:49:54.418Z,17.75
2022-10-04T10:53:15.932Z,17.97
2022-10-04T10:56:38.362Z,17.99
2022-10-04T11:00:14.944Z,18.44
2022-10-04T11:03:46.839Z,17.99
2022-10-04T11:07:27.480Z,17.96
2022-10-04T11:11:01.832Z,17.85
2022-10-04T11:14:40.858Z,18.12
2022-10-04T11:17:57.640Z,18.74
2022-10-04T11:21:51.598Z,18.85
2022-10-04T11:25:19.080Z,18.86
2022-10-04T11:28:24.324Z,19.21
2022-10-04T11:31:41.832Z,19.02
2022-10-04T11:35:41.706Z,19.20
2022-10-04T11:39:03.911Z,19.21
2022-10-04T11:42:18.685Z,19.39
2022-10-04T11:45:54.284Z,19.63
2022-10-04T11:49:08.286Z,19.65
2022-10-04T11:52:40.459Z,20.03
2022-10-04T11:56:06.300Z,19.91
2022-10-04T11:59:21.442Z,20.44
2022-10-04T12:02:49.048Z,20.44
2022-10-04T12:06:04.761Z,20.69
2022-10-04T12:09:15.473Z,21.12
2022-10-04T12:12:40.482Z,21.35
2022-10-04T12:15:49.376Z,21.22
2022-10-04T12:19:22.139Z,21.90
2022-10-04T12:22:50.906Z,22.00
2022-10-04T12:26:07.291Z,21.95
2022-10-04T12:29:27.708Z,22.28
2022-10-04T12:32:34.626Z,21.92
2022-10-04T12:35:58.005Z,21.73
2022-10-04T12:39:14.481Z,21.53
2022-10-04T12:42:29.252Z,21.46
2022-10-04T12:45:56.892Z,25.39
2022-10-04T12:49:16.793Z,32.84
2022-10-04T12:52:21.613Z,33.43
2022-10-04T12:55:45.756Z,36.49
2022-10-04T12:59:17.582Z,37.36
2022-10-04T13:02:32.617Z,37.23
2022-10-04T13:05:39.011Z,39.00
2022-10-04T13:08:54.564Z,37.94
2022-10-04T13:12:08.495Z,38.62
2022-10-04T13:15:23.757Z,39.02
2022-10-04T13:18:33.178Z,41.18
2022-10-04T13:22:08.328Z,41.34
2022-10-04T13:25:28.313Z,41.57
2022-10-04T13:28:36.097Z,42.25
2022-10-04T13:31:43.274Z,42.11
2022-10-04T13:34:53.370Z,41.98
2022-10-04T13:38:08.119Z,43.31
2022-10-04T13:41:20.693Z,41.86
2022-10-04T13:44:36.429Z,41.31
2022-10-04T13:47:49.154Z,41.98
2022-10-04T13:51:02.161Z,42.35
2022-10-04T13:54:31.090Z,43.29
2022-10-04T13:57:45.079Z,44.05
2022-10-04T14:01:03.300Z,45.04
2022-10-04T14:04:18.377Z,43.52
2022-10-04T14:08:03.403Z,42.55
2022-10-04T14:11:22.077Z,42.55
2022-10-04T14:15:04.442Z,42.12
2022-10-04T14:18:43.123Z,43.18
2022-10-04T14:22:21.765Z,43.22
2022-10-04T14:25:41.748Z,44.09
2022-10-04T14:29:15.042Z,43.19
2022-10-04T14:32:36.400Z,42.20
2022-10-04T14:35:44.932Z,41.57
2022-10-04T14:39:08.839Z,42.20
2022-10-04T14:42:25.229Z,44.35
2022-10-04T14:45:39.125Z,45.25
2022-10-04T14:48:51.039Z,43.78
2022-10-04T14:52:06.694Z,43.34
2022-10-04T14:55:15.618Z,43.81
2022-10-04T14:58:24.653Z,43.20
2022-10-04T15:01:28.389Z,42.08
2022-10-04T15:04:35.923Z,42.45
2022-10-04T15:07:39.606Z,41.17
2022-10-04T15:10:49.839Z,41.03
2022-10-04T15:13:56.049Z,39.84
2022-10-04T15:17:00.962Z,39.30
2022-10-04T15:20:08.207Z,39.94
2022-10-04T15:23:16.732Z,40.88
2022-10-04T15:27:04.954Z,40.90
2022-10-04T15:30:19.045Z,42.32
2022-10-04T15:33:28.498Z,41.80
2022-10-04T15:37:04.213Z,42.34
2022-10-04T15:40:40.818Z,41.87
2022-10-04T15:43:45.117Z,40.56
2022-10-04T15:46:52.514Z,40.67
2022-10-04T15:50:04.322Z,39.37
2022-10-04T15:53:20.272Z,38.50
2022-10-04T15:56:28.298Z,37.93
2022-10-04T15:59:43.464Z,33.39
2022-10-04T16:02:59.607Z,27.86
2022-10-04T16:06:05.894Z,24.66
2022-10-04T16:09:29.078Z,22.74
2022-10-04T16:12:33.274Z,21.75
2022-10-04T16:15:37.191Z,21.03
2022-10-04T16:18:46.973Z,20.40
2022-10-04T16:21:52.897Z,20.01
2022-10-04T16:24:57.664Z,19.62
2022-10-04T16:28:06.292Z,19.27
2022-10-04T16:31:36.806Z,19.03
2022-10-04T16:34:52.696Z,18.78
2022-10-04T16:37:59.271Z,18.45
2022-10-04T16:41:10.145Z,18.11
2022-10-04T16:44:29.886Z,17.75
2022-10-04T16:47:38.282Z,17.45
2022-10-04T16:51:19.214Z,17.27
2022-10-04T16:54:35.919Z,16.97
2022-10-04T16:57:39.100Z,16.82
2022-10-04T17:00:41.920Z,16.62
2022-10-04T17:03:52.963Z,16.47
2022-10-04T17:06:59.093Z,16.27
2022-10-04T17:10:18.946Z,16.13
2022-10-04T17:13:26.571Z,15.85
2022-10-04T17:16:34.634Z,15.78
2022-10-04T17:19:43.000Z,15.65
2022-10-04T17:22:54.165Z,15.44
2022-10-04T17:26:04.419Z,15.28
2022-10-04T17:29:21.799Z,15.18
2022-10-04T17:32:29.140Z,15.02
2022-10-04T17:36:02.007Z,14.85
2022-10-04T17:39:29.111Z,14.85
2022-10-04T17:42:37.470Z,14.77
2022-10-04T17:45:53.287Z,14.82
2022-10-04T17:49:17.068Z,14.77
2022-10-04T17:52:43.148Z,14.68
2022-10-04T17:55:48.874Z,14.53
2022-10-04T17:58:54.786Z,14.37
2022-10-04T18:02:02.699Z,14.19
2022-10-04T18:05:18.071Z,13.94
2022-10-04T18:08:35.722Z,13.80
2022-10-04T18:11:47.223Z,13.73
2022-10-04T18:14:59.501Z,13.56
2022-10-04T18:18:16.153Z,13.53
2022-10-04T18:21:27.337Z,13.48
2022-10-04T18:24:30.958Z,13.47
2022-10-04T18:27:49.967Z,13.42
2022-10-04T18:30:58.869Z,13.37
2022-10-04T18:34:08.612Z,13.39
2022-10-04T18:37:20.933Z,13.32
2022-10-04T18:40:25.248Z,13.23
2022-10-04T18:43:30.863Z,13.08
2022-10-04T18:46:40.067Z,13.08
2022-10-04T18:49:48.123Z,12.91
2022-10-04T18:52:58.185Z,12.88
2022-10-04T18:56:03.530Z,12.80
2022-10-04T18:59:34.767Z,12.81
2022-10-04T19:02:42.247Z,12.78
2022-10-04T19:05:52.202Z,12.69
2022-10-04T19:09:04.182Z,12.64
2022-10-04T19:12:12.386Z,12.69
2022-10-04T19:15:26.807Z,12.71
2022-10-04T19:18:40.199Z,12.79
2022-10-04T19:21:48.987Z,12.69
2022-10-04T19:25:18.181Z,12.53
2022-10-04T19:28:23.939Z,12.42
2022-10-04T19:31:33.846Z,12.41
2022-10-04T19:34:46.233Z,12.46
2022-10-04T19:37:56.677Z,12.42
2022-10-04T19:41:05.742Z,12.27
2022-10-04T19:44:19.423Z,12.26
2022-10-04T19:47:38.164Z,12.06
2022-10-04T19:50:45.378Z,12.00
2022-10-04T19:53:51.785Z,12.01
2022-10-04T19:56:55.531Z,11.98
2022-10-04T19:59:58.178Z,11.93
2022-10-04T20:03:02.420Z,11.98
2022-10-04T20:06:05.424Z,11.93
2022-10-04T20:09:26.460Z,11.91
2022-10-04T20:12:33.131Z,11.99
2022-10-04T20:15:47.589Z,12.02
2022-10-04T20:19:03.155Z,12.10
2022-10-04T20:22:30.779Z,12.09
2022-10-04T20:26:00.742Z,12.14
2022-10-04T20:29:03.824Z,12.18
2022-10-04T20:32:08.281Z,12.13
2022-10-04T20:35:14.998Z,12.22
2022-10-04T20:38:32.074Z,12.25
2022-10-04T20:42:25.095Z,12.09
2022-10-04T20:45:28.555Z,11.91
2022-10-04T20:48:33.006Z,11.82
2022-10-04T20:51:37.804Z,11.82
2022-10-04T20:54:40.454Z,11.98
2022-10-04T20:57:43.122Z,11.93
2022-10-04T21:00:52.787Z,11.94
2022-10-04T21:03:55.404Z,11.87
2022-10-04T21:07:01.279Z,11.71
2022-10-04T21:10:08.677Z,11.64
2022-10-04T21:13:41.918Z,11.63
2022-10-04T21:16:48.931Z,11.63
2022-10-04T21:19:52.132Z,11.62
2022-10-04T21:23:09.864Z,11.56
2022-10-04T21:26:22.584Z,11.60
2022-10-04T21:29:25.340Z,11.57
2022-10-04T21:32:28.840Z,11.43
2022-10-04T21:35:31.436Z,11.42
2022-10-04T21:38:35.517Z,11.35
2022-10-04T21:41:38.222Z,11.35
2022-10-04T21:44:40.896Z,11.27
2022-10-04T21:47:43.553Z,11.26
2022-10-04T21:50:46.227Z,11.20
2022-10-04T21:53:50.182Z,11.13
2022-10-04T21:56:53.901Z,11.02
2022-10-04T21:59:56.550Z,11.01
2022-10-04T22:02:59.316Z,10.99
2022-10-04T22:06:01.923Z,10.86
2022-10-04T22:09:06.436Z,10.70
2022-10-04T22:12:09.158Z,10.60
2022-10-04T22:15:11.782Z,10.62
2022-10-04T22:18:14.486Z,10.79
2022-10-04T22:21:17.222Z,10.71
2022-10-04T22:24:21.916Z,10.68
2022-10-04T22:27:24.669Z,10.60
2022-10-04T22:30:31.182Z,10.71
2022-10-04T22:33:35.502Z,10.63
2022-10-04T22:36:39.449Z,10.56
2022-10-04T22:39:43.468Z,10.49
2022-10-04T22:42:46.350Z,10.43
2022-10-04T22:45:49.112Z,10.34
2022-10-04T22:48:52.108Z,10.29
2022-10-04T22:51:56.991Z,10.30
2022-10-04T22:55:03.177Z,10.36
2022-10-04T22:58:05.801Z,10.42
2022-10-04T23:01:14.067Z,10.43
2022-10-04T23:04:22.057Z,10.35
2022-10-04T23:07:25.928Z,10.25
2022-10-04T23:10:29.863Z,10.18
2022-10-04T23:13:32.555Z,10.20
2022-10-04T23:16:35.248Z,10.21
2022-10-04T23:19:37.949Z,10.20
2022-10-04T23:22:41.086Z,10.33
2022-10-04T23:25:47.107Z,10.40
2022-10-04T23:28:49.799Z,10.46
2022-10-04T23:31:52.913Z,10.38
2022-10-04T23:34:57.023Z,10.40
2022-10-04T23:37:59.816Z,10.38
2022-10-04T23:41:03.982Z,10.23
2022-10-04T23:44:11.997Z,10.02
2022-10-04T23:47:16.752Z,9.94
2022-10-04T23:50:23.132Z,9.92
2022-10-04T23:53:28.989Z,9.90
2022-10-04T23:56:33.079Z,9.95
2022-10-04T23:59:35.835Z,10.07
